Time;durP1;ratioP1;P1;durP2;ratioP2;P2;SDS_P1;SDS_P2;PMS_P1;PMS_P2;Temp;Humidity;BMP_temperature;BMP_pressure;BME280_temperature;BME280_humidity;BME280_pressure;Samples;Min_cycle;Max_cycle;Signal;HPM_P1;HPM_P2
2023/08/31 00:00:36;;;;;;;0.40;0.20;;;;;;;15.38;100.00;99606.69;5025188;28;20444;-47
2023/08/31 00:03:02;;;;;;;0.40;0.20;;;;;;;15.44;100.00;99597.44;5012559;28;20453;-48
2023/08/31 00:05:30;;;;;;;0.40;0.20;;;;;;;15.32;100.00;99605.22;5025348;28;20491;-47
2023/08/31 00:07:57;;;;;;;0.40;0.20;;;;;;;15.22;100.00;99605.88;5019276;28;20492;-47
2023/08/31 00:10:23;;;;;;;0.40;0.20;;;;;;;15.32;100.00;99615.06;5018952;28;20571;-48
2023/08/31 00:12:50;;;;;;;0.40;0.20;;;;;;;15.24;100.00;99606.66;5024268;28;20497;-47
2023/08/31 00:15:16;;;;;;;0.40;0.20;;;;;;;15.25;100.00;99611.91;5021225;28;20516;-47
2023/08/31 00:17:43;;;;;;;0.40;0.20;;;;;;;15.15;100.00;99617.88;5024487;28;21006;-47
2023/08/31 00:20:11;;;;;;;0.40;0.20;;;;;;;15.04;100.00;99616.69;5020509;28;20449;-47
2023/08/31 00:22:38;;;;;;;0.40;0.20;;;;;;;15.14;100.00;99621.53;5024918;28;20479;-48
2023/08/31 00:25:08;;;;;;;0.40;0.20;;;;;;;15.24;100.00;99614.69;5033231;28;20467;-47
2023/08/31 00:27:37;;;;;;;0.40;0.20;;;;;;;15.03;100.00;99620.31;5026077;28;20459;-47
2023/08/31 00:30:11;;;;;;;0.40;0.20;;;;;;;14.97;100.00;99620.69;5018974;28;20493;-47
2023/08/31 00:32:39;;;;;;;0.40;0.20;;;;;;;14.95;100.00;99621.72;5024793;28;20792;-47
2023/08/31 00:35:05;;;;;;;0.40;0.20;;;;;;;15.01;100.00;99616.88;5028594;28;20490;-47
2023/08/31 00:37:32;;;;;;;0.53;0.53;;;;;;;14.95;100.00;99619.91;5033189;28;20459;-47
2023/08/31 00:40:00;;;;;;;0.40;0.20;;;;;;;14.99;100.00;99620.59;5033219;28;20932;-49
2023/08/31 00:42:27;;;;;;;0.40;0.20;;;;;;;14.90;100.00;99619.28;5024065;28;20539;-47
2023/08/31 00:44:54;;;;;;;0.40;0.20;;;;;;;14.47;100.00;99610.16;5028610;28;20468;-47
2023/08/31 00:47:21;;;;;;;0.40;0.20;;;;;;;14.34;100.00;99615.28;5015688;28;20423;-47
2023/08/31 00:49:47;;;;;;;0.40;0.20;;;;;;;14.26;100.00;99622.88;5028580;28;20488;-47
2023/08/31 00:52:14;;;;;;;0.40;0.20;;;;;;;14.24;100.00;99614.03;5015494;28;20452;-47
2023/08/31 00:54:42;;;;;;;0.40;0.20;;;;;;;14.37;100.00;99615.09;5033615;28;20821;-47
2023/08/31 00:57:09;;;;;;;0.40;0.20;;;;;;;14.46;100.00;99625.34;5022719;28;20476;-47
2023/08/31 00:59:36;;;;;;;0.40;0.20;;;;;;;14.55;100.00;99620.44;5021301;28;20681;-47
2023/08/31 01:02:05;;;;;;;0.40;0.20;;;;;;;14.65;100.00;99621.63;5022388;28;20543;-47
2023/08/31 01:05:03;;;;;;;0.40;0.20;;;;;;;14.73;100.00;99633.63;5028412;28;20488;-48
2023/08/31 01:07:53;;;;;;;0.40;0.20;;;;;;;14.68;100.00;99635.72;5005974;28;20441;-47
2023/08/31 01:10:37;;;;;;;0.40;0.20;;;;;;;14.72;100.00;99628.38;5028326;28;20498;-48
2023/08/31 01:13:13;;;;;;;0.40;0.20;;;;;;;14.76;100.00;99629.91;5015109;28;20449;-47
2023/08/31 01:15:46;;;;;;;0.40;0.20;;;;;;;14.52;100.00;99622.31;5028064;28;20898;-48
2023/08/31 01:18:17;;;;;;;0.40;0.20;;;;;;;14.67;100.00;99623.28;5015006;28;20888;-48
2023/08/31 01:20:52;;;;;;;0.40;0.20;;;;;;;14.64;100.00;99618.09;5027750;28;20445;-48
2023/08/31 01:23:20;;;;;;;0.40;0.20;;;;;;;14.65;100.00;99614.47;5016023;28;20452;-47
2023/08/31 01:25:48;;;;;;;0.40;0.20;;;;;;;14.44;100.00;99613.88;5034140;28;20467;-47
2023/08/31 01:28:15;;;;;;;0.40;0.20;;;;;;;14.59;100.00;99619.31;5019982;28;20451;-48
2023/08/31 01:30:42;;;;;;;0.40;0.20;;;;;;;14.44;100.00;99624.56;5023030;28;21082;-48
2023/08/31 01:33:08;;;;;;;0.40;0.20;;;;;;;14.28;100.00;99618.31;5019258;28;20540;-47
2023/08/31 01:35:45;;;;;;;0.40;0.20;;;;;;;14.13;100.00;99613.78;5027278;28;20468;-49
2023/08/31 01:38:16;;;;;;;0.40;0.20;;;;;;;14.33;100.00;99612.69;5020845;28;20452;-49
2023/08/31 01:40:56;;;;;;;0.40;0.20;;;;;;;14.44;100.00;99624.56;5034109;28;20436;-47
2023/08/31 01:43:23;;;;;;;0.40;0.20;;;;;;;14.52;100.00;99619.63;5021198;28;20448;-47
2023/08/31 01:45:50;;;;;;;0.40;0.20;;;;;;;14.56;100.00;99624.84;5021282;28;20527;-47
2023/08/31 01:48:17;;;;;;;0.40;0.20;;;;;;;14.65;100.00;99625.16;5020766;28;20538;-47
2023/08/31 01:50:43;;;;;;;0.40;0.20;;;;;;;14.71;100.00;99623.97;5020652;28;20912;-50
2023/08/31 01:53:10;;;;;;;0.40;0.20;;;;;;;14.87;100.00;99613.25;5020818;28;20451;-48
2023/08/31 01:55:37;;;;;;;0.40;0.20;;;;;;;14.84;100.00;99624.16;5033818;28;20490;-48
2023/08/31 01:58:03;;;;;;;0.40;0.20;;;;;;;14.85;100.00;99620.53;5027536;28;20547;-47
2023/08/31 02:00:34;;;;;;;0.40;0.20;;;;;;;14.92;100.00;99620.06;5014237;28;20487;-48
2023/08/31 02:03:01;;;;;;;0.40;0.20;;;;;;;14.82;100.00;99614.41;5026781;28;20533;-47
2023/08/31 02:05:27;;;;;;;0.40;0.20;;;;;;;14.88;100.00;99613.16;5027163;23;20523;-51
2023/08/31 02:07:54;;;;;;;0.40;0.20;;;;;;;14.96;100.00;99612.75;5002103;28;20453;-51
2023/08/31 02:10:20;;;;;;;0.40;0.20;;;;;;;14.96;100.00;99623.47;5013709;28;20584;-51
2023/08/31 02:12:47;;;;;;;0.40;0.20;;;;;;;14.93;100.00;99624.47;5013751;28;20945;-51
2023/08/31 02:15:13;;;;;;;0.40;0.20;;;;;;;14.79;100.00;99622.56;5013671;28;20468;-52
2023/08/31 02:17:40;;;;;;;0.40;0.20;;;;;;;14.79;100.00;99627.94;5013820;28;20488;-52
2023/08/31 02:20:08;;;;;;;0.40;0.20;;;;;;;14.80;100.00;99629.69;5013359;28;20528;-52
2023/08/31 02:22:37;;;;;;;0.40;0.20;;;;;;;14.76;100.00;99629.91;5013860;28;20449;-52
2023/08/31 02:25:05;;;;;;;0.40;0.20;;;;;;;14.77;100.00;99643.22;5001865;28;20545;-52
2023/08/31 02:27:31;;;;;;;0.40;0.20;;;;;;;14.77;100.00;99631.66;5013610;28;21015;-52
2023/08/31 02:29:58;;;;;;;0.40;0.20;;;;;;;14.56;100.00;99640.88;5013324;28;20567;-52
2023/08/31 02:32:25;;;;;;;0.40;0.20;;;;;;;14.32;100.00;99641.25;5012805;28;20924;-52
2023/08/31 02:34:51;;;;;;;0.40;0.20;;;;;;;14.12;100.00;99647.66;5009210;28;20453;-52
2023/08/31 02:37:17;;;;;;;0.40;0.20;;;;;;;14.04;100.00;99647.22;5013539;28;20478;-52
2023/08/31 02:39:44;;;;;;;0.40;0.20;;;;;;;14.11;100.00;99647.72;5009510;28;20533;-52
2023/08/31 02:42:10;;;;;;;0.40;0.20;;;;;;;14.30;100.00;99651.16;5002982;28;20449;-52
2023/08/31 02:44:37;;;;;;;0.40;0.20;;;;;;;14.17;100.00;99650.09;5013126;28;20586;-52
2023/08/31 02:47:03;;;;;;;0.40;0.20;;;;;;;13.89;100.00;99648.88;5013024;28;20476;-52
2023/08/31 02:49:30;;;;;;;0.40;0.20;;;;;;;13.44;100.00;99652.13;5013149;28;20534;-52
2023/08/31 02:51:56;;;;;;;0.40;0.20;;;;;;;13.49;100.00;99654.56;5012080;28;20449;-52
2023/08/31 02:54:23;;;;;;;0.40;0.20;;;;;;;13.54;100.00;99655.16;5008536;28;20494;-52
2023/08/31 02:56:50;;;;;;;0.40;0.20;;;;;;;13.61;100.00;99657.47;5012858;28;20559;-52
2023/08/31 02:59:17;;;;;;;0.40;0.20;;;;;;;13.62;100.00;99663.66;5011658;28;20452;-52
2023/08/31 03:01:46;;;;;;;0.40;0.20;;;;;;;13.37;100.00;99661.38;5012868;28;20475;-51
2023/08/31 03:04:12;;;;;;;0.40;0.20;;;;;;;13.29;100.00;99660.88;5012780;28;20452;-52
2023/08/31 03:06:39;;;;;;;0.40;0.20;;;;;;;13.42;100.00;99658.44;5006349;28;20473;-51
2023/08/31 03:09:05;;;;;;;0.40;0.20;;;;;;;13.22;100.00;99665.66;5010244;28;20914;-52
2023/08/31 03:11:32;;;;;;;0.40;0.20;;;;;;;13.16;100.00;99659.75;5012533;28;20496;-52
2023/08/31 03:13:58;;;;;;;0.40;0.20;;;;;;;13.16;100.00;99665.09;5012717;28;20507;-52
2023/08/31 03:16:25;;;;;;;0.40;0.20;;;;;;;13.00;100.00;99668.47;5012542;28;20538;-52
2023/08/31 03:18:51;;;;;;;0.40;0.20;;;;;;;12.74;100.00;99660.84;5012474;28;20448;-52
2023/08/31 03:21:17;;;;;;;0.40;0.20;;;;;;;12.99;100.00;99660.56;5012849;28;20535;-52
2023/08/31 03:23:44;;;;;;;0.40;0.20;;;;;;;12.93;100.00;99668.88;5010064;28;20448;-52
2023/08/31 03:26:10;;;;;;;0.40;0.20;;;;;;;12.99;100.00;99673.88;5004473;28;20555;-52
2023/08/31 03:28:38;;;;;;;0.40;0.20;;;;;;;12.94;100.00;99667.91;5012464;28;20530;-52
2023/08/31 03:31:05;;;;;;;0.40;0.20;;;;;;;13.19;100.00;99668.50;5012369;28;20492;-52
2023/08/31 03:33:31;;;;;;;0.40;0.20;;;;;;;13.16;100.00;99675.75;5012615;28;20457;-52
2023/08/31 03:36:04;;;;;;;0.40;0.20;;;;;;;13.07;100.00;99661.06;5008954;28;20470;-52
2023/08/31 03:38:31;;;;;;;0.40;0.20;;;;;;;13.27;100.00;99671.63;5012302;28;20456;-52
2023/08/31 03:40:57;;;;;;;0.40;0.20;;;;;;;13.23;100.00;99670.06;5001697;28;20441;-52
2023/08/31 03:43:24;;;;;;;0.40;0.20;;;;;;;13.20;100.00;99672.88;4998753;28;20527;-52
2023/08/31 03:45:57;;;;;;;0.40;0.20;;;;;;;13.24;100.00;99676.25;5015234;28;21007;-52
2023/08/31 03:48:24;;;;;;;0.40;0.20;;;;;;;13.09;100.00;99671.66;4991530;28;20449;-52
2023/08/31 03:50:52;;;;;;;0.40;0.20;;;;;;;13.20;100.00;99675.56;5016375;28;20578;-52
2023/08/31 03:53:18;;;;;;;0.40;0.20;;;;;;;13.05;100.00;99673.59;5016479;28;20472;-52
2023/08/31 03:55:45;;;;;;;0.40;0.20;;;;;;;12.96;100.00;99682.91;5011114;28;21067;-52
2023/08/31 03:58:12;;;;;;;0.40;0.20;;;;;;;12.93;100.00;99687.53;5016187;28;20481;-52
2023/08/31 04:00:38;;;;;;;0.40;0.30;;;;;;;12.95;100.00;99689.19;5016378;28;20447;-52
2023/08/31 04:03:05;;;;;;;0.40;0.20;;;;;;;12.83;100.00;99694.25;5016511;28;20459;-51
2023/08/31 04:05:33;;;;;;;0.40;0.20;;;;;;;12.82;100.00;99685.38;5015860;28;20565;-52
2023/08/31 04:08:01;;;;;;;0.40;0.20;;;;;;;12.83;100.00;99689.75;5008034;28;20458;-52
2023/08/31 04:10:29;;;;;;;0.40;0.20;;;;;;;12.75;100.00;99689.28;5015605;28;20527;-52
2023/08/31 04:12:55;;;;;;;0.40;0.20;;;;;;;12.93;100.00;99693.72;5016243;28;20453;-52
2023/08/31 04:15:22;;;;;;;0.53;0.47;;;;;;;12.90;100.00;99699.22;5014661;28;20547;-52
2023/08/31 04:17:49;;;;;;;0.40;0.20;;;;;;;12.91;100.00;99711.63;5016226;28;20955;-52
2023/08/31 04:20:16;;;;;;;0.40;0.20;;;;;;;12.96;100.00;99714.06;5016327;28;20484;-52
2023/08/31 04:22:43;;;;;;;0.40;0.20;;;;;;;12.90;100.00;99717.91;5015890;28;20452;-51
2023/08/31 04:25:09;;;;;;;0.40;0.20;;;;;;;12.83;100.00;99715.56;5003226;28;20541;-52
2023/08/31 04:27:38;;;;;;;0.70;0.70;;;;;;;12.79;100.00;99714.00;5015852;28;20473;-52
2023/08/31 04:30:06;;;;;;;0.40;0.20;;;;;;;12.85;100.00;99716.38;5015831;28;20488;-52
2023/08/31 04:32:33;;;;;;;0.40;0.20;;;;;;;12.80;100.00;99713.06;5015652;28;20548;-52
2023/08/31 04:34:59;;;;;;;0.40;0.20;;;;;;;12.79;100.00;99709.53;5011164;28;20467;-51
2023/08/31 04:37:26;;;;;;;0.40;0.20;;;;;;;12.78;100.00;99707.81;5015645;28;20885;-52
2023/08/31 04:39:52;;;;;;;0.40;0.20;;;;;;;12.80;100.00;99719.25;5015352;28;20452;-52
2023/08/31 04:42:19;;;;;;;0.50;0.40;;;;;;;12.75;100.00;99718.63;5002562;28;20457;-52
2023/08/31 04:44:45;;;;;;;0.40;0.20;;;;;;;12.65;100.00;99719.97;5012875;28;20448;-52
2023/08/31 04:47:12;;;;;;;0.40;0.20;;;;;;;12.29;100.00;99720.69;5015452;28;20468;-52
2023/08/31 04:49:38;;;;;;;0.40;0.20;;;;;;;12.55;100.00;99716.00;5015072;28;20812;-52
2023/08/31 04:52:05;;;;;;;0.40;0.20;;;;;;;12.33;100.00;99726.75;5015113;28;20488;-52
2023/08/31 04:54:32;;;;;;;0.40;0.20;;;;;;;12.51;100.00;99728.59;5010669;28;20503;-52
2023/08/31 04:56:59;;;;;;;0.40;0.20;;;;;;;12.62;100.00;99728.97;5014725;28;20476;-52
2023/08/31 04:59:25;;;;;;;0.40;0.20;;;;;;;12.69;100.00;99730.41;5015141;28;20467;-52
2023/08/31 05:01:51;;;;;;;0.40;0.20;;;;;;;12.68;100.00;99743.81;5015284;28;20449;-51
2023/08/31 05:04:18;;;;;;;0.40;0.20;;;;;;;12.80;100.00;99745.06;5014963;28;20463;-52
2023/08/31 05:06:44;;;;;;;0.40;0.20;;;;;;;12.78;100.00;99753.16;5014731;28;21028;-52
2023/08/31 05:09:11;;;;;;;0.40;0.20;;;;;;;12.85;100.00;99751.91;5012780;28;20448;-52
2023/08/31 05:11:37;;;;;;;0.40;0.20;;;;;;;12.91;100.00;99762.31;5014838;28;20495;-52
2023/08/31 05:14:03;;;;;;;0.40;0.20;;;;;;;12.80;100.00;99758.41;5014877;28;20453;-51
2023/08/31 05:16:30;;;;;;;0.40;0.20;;;;;;;12.79;100.00;99767.34;5014863;28;20479;-52
2023/08/31 05:18:56;;;;;;;0.40;0.20;;;;;;;12.64;100.00;99771.56;5014695;28;20455;-51
2023/08/31 05:21:23;;;;;;;0.40;0.20;;;;;;;12.92;100.00;99768.50;5014694;28;20480;-52
2023/08/31 05:23:49;;;;;;;0.40;0.20;;;;;;;13.40;100.00;99776.00;5011515;28;20454;-51
2023/08/31 05:26:16;;;;;;;0.40;0.20;;;;;;;13.97;100.00;99771.38;5006235;28;20534;-52
2023/08/31 05:28:43;;;;;;;0.40;0.20;;;;;;;14.42;100.00;99770.81;5014603;28;20460;-51
2023/08/31 05:31:09;;;;;;;0.40;0.20;;;;;;;14.83;98.91;99783.84;5014452;28;20567;-51
2023/08/31 05:33:36;;;;;;;0.40;0.20;;;;;;;14.99;98.16;99783.88;5014331;28;20444;-51
2023/08/31 05:36:06;;;;;;;0.40;0.20;;;;;;;15.07;98.92;99786.97;5010300;28;20460;-52
2023/08/31 05:38:32;;;;;;;0.40;0.20;;;;;;;15.28;98.34;99798.31;5014272;28;20455;-52
2023/08/31 05:41:09;;;;;;;0.40;0.20;;;;;;;15.50;97.75;99793.50;5014408;28;20879;-52
2023/08/31 05:43:36;;;;;;;0.40;0.20;;;;;;;15.51;97.30;99800.56;4987822;28;20455;-52
2023/08/31 05:46:03;;;;;;;0.40;0.20;;;;;;;15.54;97.95;99797.72;5009012;28;20563;-52
2023/08/31 05:48:30;;;;;;;0.40;0.20;;;;;;;15.73;96.75;99804.72;5014076;28;20460;-51
2023/08/31 05:50:57;;;;;;;0.40;0.20;;;;;;;16.00;95.36;99803.13;5014172;28;20920;-52
2023/08/31 05:53:23;;;;;;;0.40;0.20;;;;;;;16.27;94.55;99805.97;5014351;28;20452;-52
2023/08/31 05:55:50;;;;;;;0.40;0.20;;;;;;;16.21;96.01;99809.03;5009100;28;20468;-52
2023/08/31 05:58:16;;;;;;;0.40;0.20;;;;;;;16.01;97.97;99810.19;5014174;28;20459;-52
2023/08/31 06:00:43;;;;;;;0.40;0.20;;;;;;;15.89;96.84;99805.56;5013920;28;20514;-51
2023/08/31 06:03:10;;;;;;;0.40;0.20;;;;;;;16.07;96.95;99811.69;5013880;28;20458;-52
2023/08/31 06:05:38;;;;;;;0.40;0.20;;;;;;;15.89;96.68;99814.47;5013900;28;20476;-52
2023/08/31 06:08:05;;;;;;;0.40;0.20;;;;;;;15.91;98.34;99814.41;5006848;28;20449;-52
2023/08/31 06:10:31;;;;;;;0.40;0.20;;;;;;;15.88;96.70;99814.53;5009384;28;20524;-52
2023/08/31 06:12:58;;;;;;;0.40;0.20;;;;;;;15.94;97.75;99816.88;5013767;28;20427;-52
2023/08/31 06:15:24;;;;;;;0.40;0.20;;;;;;;16.04;96.06;99814.53;5013456;28;21073;-52
2023/08/31 06:17:50;;;;;;;0.40;0.20;;;;;;;16.59;95.66;99820.16;5013850;28;20452;-52
2023/08/31 06:20:17;;;;;;;0.40;0.20;;;;;;;16.36;94.64;99823.34;5013685;28;20518;-52
2023/08/31 06:22:43;;;;;;;0.40;0.20;;;;;;;16.50;95.45;99826.06;5013610;28;20902;-52
2023/08/31 06:25:11;;;;;;;0.40;0.20;;;;;;;16.43;94.85;99824.69;5001288;28;20456;-52
2023/08/31 06:27:37;;;;;;;0.40;0.20;;;;;;;16.66;93.85;99826.84;5013391;28;20431;-52
2023/08/31 06:30:04;;;;;;;0.40;0.20;;;;;;;16.66;93.36;99826.84;5013226;28;20427;-52
2023/08/31 06:32:31;;;;;;;0.40;0.20;;;;;;;16.72;91.53;99823.84;5013300;28;20497;-51
2023/08/31 06:34:57;;;;;;;0.40;0.20;;;;;;;16.24;92.89;99836.53;5008895;28;20441;-52
2023/08/31 06:37:23;;;;;;;4.83;3.07;;;;;;;16.16;93.21;99836.13;5013450;28;20461;-52
2023/08/31 06:39:50;;;;;;;0.40;0.20;;;;;;;16.21;94.22;99835.88;5013173;28;20942;-52
2023/08/31 06:42:16;;;;;;;0.40;0.20;;;;;;;16.08;94.78;99842.91;5013111;28;20950;-52
2023/08/31 06:44:43;;;;;;;0.40;0.20;;;;;;;16.14;94.16;99843.38;4998443;28;20425;-52
2023/08/31 06:47:09;;;;;;;0.40;0.20;;;;;;;16.15;93.15;99844.25;5013370;28;20907;-52
2023/08/31 06:49:36;;;;;;;0.40;0.20;;;;;;;16.06;94.42;99832.25;5013235;28;20460;-52
2023/08/31 06:52:03;;;;;;;0.40;0.20;;;;;;;16.15;94.89;99842.44;5013315;28;20546;-52
2023/08/31 06:54:39;;;;;;;0.40;0.20;;;;;;;16.44;94.03;99847.88;5008734;28;20883;-52
2023/08/31 06:57:05;;;;;;;0.40;0.20;;;;;;;16.40;93.34;99844.53;5012823;28;20996;-52
2023/08/31 06:59:31;;;;;;;0.40;0.20;;;;;;;16.76;93.35;99846.84;5012845;28;20491;-52
2023/08/31 07:01:58;;;;;;;0.40;0.20;;;;;;;16.54;94.02;99849.06;5013217;28;20453;-52
2023/08/31 07:04:27;;;;;;;0.40;0.20;;;;;;;16.86;93.89;99847.16;5012955;28;20423;-52
2023/08/31 07:06:53;;;;;;;0.40;0.20;;;;;;;17.24;91.54;99851.94;5012875;28;20508;-52
2023/08/31 07:09:20;;;;;;;0.40;0.20;;;;;;;16.96;92.42;99848.31;5002900;28;20527;-52
2023/08/31 07:11:46;;;;;;;0.40;0.20;;;;;;;16.90;91.52;99851.38;5012579;28;20571;-52
2023/08/31 07:14:12;;;;;;;0.40;0.20;;;;;;;16.80;91.97;99848.38;5013162;28;20427;-52
2023/08/31 07:16:39;;;;;;;0.40;0.20;;;;;;;17.01;90.48;99848.91;5012757;28;20501;-52
2023/08/31 07:19:05;;;;;;;0.40;0.20;;;;;;;16.73;91.50;99847.06;4986605;28;20484;-52
2023/08/31 07:21:32;;;;;;;0.40;0.20;;;;;;;17.00;91.52;99857.91;5012616;28;20458;-52
2023/08/31 07:23:58;;;;;;;0.40;0.20;;;;;;;16.76;90.44;99848.69;4981870;28;20931;-52
2023/08/31 07:26:24;;;;;;;0.40;0.20;;;;;;;17.22;89.73;99848.50;5005654;28;20479;-52
2023/08/31 07:28:51;;;;;;;0.40;0.20;;;;;;;16.88;90.54;99846.09;5012571;28;20505;-52
2023/08/31 07:31:17;;;;;;;0.40;0.20;;;;;;;16.95;89.63;99853.75;5012635;28;20469;-52
2023/08/31 07:33:44;;;;;;;0.40;0.20;;;;;;;16.97;90.40;99855.41;5012572;28;20452;-52
2023/08/31 07:36:11;;;;;;;0.40;0.20;;;;;;;17.27;89.92;99849.94;5007888;28;20540;-51
2023/08/31 07:38:37;;;;;;;0.40;0.20;;;;;;;17.20;89.61;99847.72;5012327;28;20537;-52
2023/08/31 07:41:04;;;;;;;0.40;0.20;;;;;;;17.55;87.64;99857.13;5011972;28;20963;-51
2023/08/31 07:43:30;;;;;;;0.40;0.20;;;;;;;17.64;87.49;99859.19;5012497;28;20424;-52
2023/08/31 07:45:57;;;;;;;0.40;0.20;;;;;;;17.58;89.60;99864.13;4994251;28;20506;-52
2023/08/31 07:48:23;;;;;;;0.40;0.20;;;;;;;17.55;88.09;99858.94;5012614;28;20455;-52
2023/08/31 07:50:50;;;;;;;0.40;0.20;;;;;;;17.60;88.69;99864.88;5011103;28;20481;-52
2023/08/31 07:53:20;;;;;;;0.40;0.20;;;;;;;17.66;87.87;99859.94;5012777;28;20423;-52
2023/08/31 07:55:54;;;;;;;0.40;0.20;;;;;;;17.28;89.60;99870.47;5007538;28;20994;-52
2023/08/31 07:58:21;;;;;;;0.40;0.20;;;;;;;17.25;89.94;99875.16;5012427;28;20435;-52
2023/08/31 08:00:48;;;;;;;0.40;0.20;;;;;;;17.35;90.44;99876.31;5012123;28;20456;-52
2023/08/31 08:03:15;;;;;;;0.40;0.20;;;;;;;17.07;90.28;99879.88;5012188;28;20884;-52
2023/08/31 08:05:42;;;;;;;0.40;0.20;;;;;;;17.29;89.46;99876.72;5012433;28;21056;-52
2023/08/31 08:08:08;;;;;;;0.40;0.20;;;;;;;17.37;89.84;99877.94;5012396;28;20886;-52
2023/08/31 08:10:35;;;;;;;0.40;0.20;;;;;;;17.04;90.18;99886.28;5009879;28;20536;-52
2023/08/31 08:13:01;;;;;;;0.40;0.20;;;;;;;16.98;91.56;99883.97;5011910;28;20954;-52
2023/08/31 08:15:28;;;;;;;0.40;0.20;;;;;;;17.31;90.25;99891.78;5013241;28;20525;-52
2023/08/31 08:17:54;;;;;;;0.40;0.20;;;;;;;17.08;90.96;99889.66;5012353;28;20510;-53
2023/08/31 08:20:21;;;;;;;0.40;0.20;;;;;;;17.00;91.49;99894.66;5011985;28;20418;-52
2023/08/31 08:22:49;;;;;;;0.40;0.20;;;;;;;17.27;91.70;99898.31;5012129;28;20448;-52
2023/08/31 08:25:15;;;;;;;0.40;0.20;;;;;;;17.55;90.71;99891.19;5001088;28;20473;-52
2023/08/31 08:27:42;;;;;;;0.40;0.20;;;;;;;17.24;91.48;99895.78;5011870;28;20507;-53
2023/08/31 08:30:09;;;;;;;0.40;0.20;;;;;;;17.33;92.03;99897.91;5011983;28;20488;-52
2023/08/31 08:32:36;;;;;;;0.40;0.20;;;;;;;17.41;90.70;99892.94;5015659;28;20488;-52
2023/08/31 08:35:03;;;;;;;0.40;0.20;;;;;;;17.64;90.06;99898.66;5011217;28;20950;-52
2023/08/31 08:37:32;;;;;;;0.40;0.20;;;;;;;17.81;88.50;99900.28;5015906;28;20459;-52
2023/08/31 08:40:00;;;;;;;0.40;0.20;;;;;;;18.00;85.98;99904.38;5015579;28;20483;-52
2023/08/31 08:42:29;;;;;;;0.40;0.20;;;;;;;18.02;84.86;99905.13;5015685;28;20453;-52
2023/08/31 08:44:57;;;;;;;0.40;0.20;;;;;;;18.24;85.23;99904.59;5006924;28;21038;-51
2023/08/31 08:47:26;;;;;;;0.40;0.20;;;;;;;18.48;83.63;99909.28;5007973;28;20842;-52
2023/08/31 08:49:54;;;;;;;0.40;0.20;;;;;;;18.39;83.70;99908.09;5015310;28;20473;-51
2023/08/31 08:52:22;;;;;;;0.40;0.20;;;;;;;18.62;84.13;99911.91;5015376;28;20545;-51
2023/08/31 08:54:49;;;;;;;0.40;0.20;;;;;;;18.28;82.97;99903.41;4993911;28;20430;-51
2023/08/31 08:57:16;;;;;;;0.40;0.20;;;;;;;18.23;82.35;99910.94;5014963;28;20450;-51
2023/08/31 08:59:42;;;;;;;0.40;0.20;;;;;;;18.51;82.00;99911.78;5015301;28;20483;-52
2023/08/31 09:02:12;;;;;;;0.40;0.20;;;;;;;18.79;81.09;99908.13;5015062;28;20420;-52
2023/08/31 09:04:38;;;;;;;0.40;0.20;;;;;;;19.23;80.42;99910.41;5015562;28;20461;-52
2023/08/31 09:07:05;;;;;;;0.40;0.20;;;;;;;19.32;80.65;99909.75;5014992;28;20470;-52
2023/08/31 09:09:31;;;;;;;0.40;0.20;;;;;;;19.78;79.75;99903.78;5013923;28;20489;-52
2023/08/31 09:12:07;;;;;;;0.40;0.20;;;;;;;19.63;73.13;99905.78;5009628;28;20489;-51
2023/08/31 09:14:34;;;;;;;0.40;0.20;;;;;;;20.08;72.72;99906.06;5015021;28;20455;-52
2023/08/31 09:17:00;;;;;;;0.40;0.20;;;;;;;19.98;70.82;99899.63;5015150;28;20472;-52
2023/08/31 09:19:27;;;;;;;0.40;0.20;;;;;;;20.45;71.29;99904.22;5015236;28;20435;-52
2023/08/31 09:21:56;;;;;;;0.40;0.20;;;;;;;20.67;70.31;99898.03;5014876;28;20452;-52
2023/08/31 09:24:23;;;;;;;0.40;0.20;;;;;;;20.31;69.38;99907.94;5006933;28;20991;-52
2023/08/31 09:26:56;;;;;;;0.40;0.20;;;;;;;20.79;70.39;99898.94;5011152;28;20443;-51
2023/08/31 09:29:22;;;;;;;0.40;0.20;;;;;;;20.71;68.39;99894.13;5014604;28;20515;-52
2023/08/31 09:31:49;;;;;;;0.40;0.20;;;;;;;20.49;67.57;99897.59;5014603;28;20919;-52
2023/08/31 09:34:17;;;;;;;0.43;0.20;;;;;;;20.51;65.69;99905.59;5012588;28;20423;-52
2023/08/31 09:36:44;;;;;;;0.50;0.30;;;;;;;21.02;65.07;99905.25;5012587;28;21003;-52
2023/08/31 09:39:13;;;;;;;0.40;0.20;;;;;;;20.65;65.54;99900.84;5014565;28;20526;-52
2023/08/31 09:41:55;;;;;;;0.40;0.20;;;;;;;20.85;64.97;99903.88;5013561;28;20474;-52
2023/08/31 09:44:22;;;;;;;2.97;2.00;;;;;;;20.79;64.83;99897.09;5014162;28;20459;-52
2023/08/31 09:46:49;;;;;;;0.40;0.20;;;;;;;20.83;62.52;99898.59;4995202;28;20492;-52
2023/08/31 09:49:16;;;;;;;0.40;0.20;;;;;;;21.26;63.40;99904.22;5008975;28;20481;-52
2023/08/31 09:51:45;;;;;;;0.40;0.20;;;;;;;20.89;61.63;99898.09;5014030;28;20465;-52
2023/08/31 09:54:14;;;;;;;0.40;0.20;;;;;;;20.97;60.34;99906.50;5009638;28;20804;-52
2023/08/31 09:56:46;;;;;;;0.40;0.20;;;;;;;21.01;60.92;99899.00;5014006;28;20572;-52
2023/08/31 09:59:15;;;;;;;0.40;0.20;;;;;;;21.47;60.83;99907.06;5013984;28;20423;-52
2023/08/31 10:01:46;;;;;;;0.40;0.20;;;;;;;21.62;60.87;99896.00;5014278;28;20531;-52
2023/08/31 10:04:13;;;;;;;0.40;0.20;;;;;;;21.15;60.56;99898.78;5014150;28;20774;-52
2023/08/31 10:06:40;;;;;;;0.40;0.30;;;;;;;21.70;60.98;99898.94;5013822;28;20829;-51
2023/08/31 10:09:09;;;;;;;0.40;0.20;;;;;;;21.48;60.28;99895.25;5014262;28;20427;-52
2023/08/31 10:11:37;;;;;;;0.40;0.20;;;;;;;21.50;59.65;99887.88;5007670;28;20571;-52
2023/08/31 10:14:04;;;;;;;0.50;0.20;;;;;;;21.61;61.38;99892.44;5013740;28;20516;-52
2023/08/31 10:16:32;;;;;;;0.40;0.20;;;;;;;21.49;59.56;99888.84;5013720;28;20459;-52
2023/08/31 10:18:58;;;;;;;0.43;0.20;;;;;;;21.75;58.36;99902.13;5013790;28;20452;-52
2023/08/31 10:21:25;;;;;;;0.40;0.20;;;;;;;21.65;57.66;99896.59;5013637;28;20873;-52
2023/08/31 10:23:52;;;;;;;0.40;0.20;;;;;;;21.58;57.63;99885.44;5010185;28;20449;-52
2023/08/31 10:26:27;;;;;;;0.50;0.40;;;;;;;21.88;58.73;99892.03;5006473;28;20443;-52
2023/08/31 10:28:54;;;;;;;0.50;0.20;;;;;;;21.93;58.12;99892.53;4988099;28;20543;-52
2023/08/31 10:31:24;;;;;;;0.50;0.20;;;;;;;21.72;57.87;99886.16;5013189;28;20423;-52
2023/08/31 10:33:59;;;;;;;0.43;0.20;;;;;;;21.72;57.75;99894.28;5013533;28;20494;-52
2023/08/31 10:36:34;;;;;;;0.50;0.20;;;;;;;21.74;57.56;99892.28;5004967;28;21011;-52
2023/08/31 10:39:15;;;;;;;0.40;0.20;;;;;;;22.13;56.87;99894.47;5013617;28;20458;-52
2023/08/31 10:41:52;;;;;;;0.40;0.20;;;;;;;22.20;53.10;99894.81;5013257;28;20426;-52
2023/08/31 10:44:27;;;;;;;0.50;0.30;;;;;;;22.20;53.97;99900.22;5013477;28;20514;-52
2023/08/31 10:46:54;;;;;;;0.43;0.20;;;;;;;22.65;54.29;99898.22;4983198;28;20450;-52
2023/08/31 10:49:22;;;;;;;0.50;0.20;;;;;;;22.18;51.80;99892.22;5008476;28;20770;-52
2023/08/31 10:52:14;;;;;;;0.40;0.30;;;;;;;22.35;54.58;99898.97;5013167;28;20462;-51
2023/08/31 10:54:55;;;;;;;0.50;0.20;;;;;;;22.72;53.11;99898.56;4991957;28;20423;-52
2023/08/31 10:57:30;;;;;;;0.50;0.20;;;;;;;22.53;53.31;99896.56;5012815;28;20449;-52
2023/08/31 10:59:58;;;;;;;0.50;0.20;;;;;;;22.82;53.31;99890.50;5013297;28;20641;-52
2023/08/31 11:02:38;;;;;;;0.50;0.20;;;;;;;22.68;50.70;99894.41;5012912;28;20442;-52
2023/08/31 11:05:12;;;;;;;0.50;0.20;;;;;;;22.59;51.45;99892.44;5012836;28;20951;-53
2023/08/31 11:07:41;;;;;;;0.50;0.20;;;;;;;22.42;50.90;99892.03;5012945;28;20531;-52
2023/08/31 11:10:11;;;;;;;0.50;0.20;;;;;;;22.42;50.23;99891.19;5010635;28;20452;-52
2023/08/31 11:12:39;;;;;;;0.50;0.20;;;;;;;22.59;49.38;99898.72;5012141;28;20501;-52
2023/08/31 11:15:06;;;;;;;0.67;0.67;;;;;;;23.11;49.18;99890.72;5012753;28;20507;-52
2023/08/31 11:17:33;;;;;;;0.50;0.20;;;;;;;23.02;49.23;99895.09;5012340;28;20488;-52
2023/08/31 11:20:01;;;;;;;0.50;0.20;;;;;;;22.95;48.84;99888.50;5012754;28;20460;-49
2023/08/31 11:22:27;;;;;;;0.50;0.20;;;;;;;23.13;49.33;99888.72;5012944;28;20457;-49
2023/08/31 11:24:54;;;;;;;0.50;0.27;;;;;;;23.02;47.83;99890.53;5001227;28;20832;-49
2023/08/31 11:27:21;;;;;;;0.50;0.20;;;;;;;23.27;48.58;99888.38;5011332;28;20897;-48
2023/08/31 11:29:48;;;;;;;0.50;0.20;;;;;;;23.66;47.99;99886.75;5012689;28;20448;-49
2023/08/31 11:32:14;;;;;;;0.50;0.30;;;;;;;23.99;45.42;99896.44;5012310;28;20832;-48